sensor_id;sensor_type;location;lat;lon;timestamp;P1;P2;P0
64229;PMS5003;50547;49.498;0.092;2023-06-22T00:00:29;7;7;
64229;PMS5003;50547;49.498;0.092;2023-06-22T00:02:58;7;7;
64229;PMS5003;50547;49.498;0.092;2023-06-22T00:05:27;6;6;
64229;PMS5003;50547;49.498;0.092;2023-06-22T00:07:56;7;7;
64229;PMS5003;50547;49.498;0.092;2023-06-22T00:10:25;7;7;
64229;PMS5003;50547;49.498;0.092;2023-06-22T00:12:54;6;6;
64229;PMS5003;50547;49.498;0.092;2023-06-22T00:15:23;7;7;
64229;PMS5003;50547;49.498;0.092;2023-06-22T00:17:52;7;7;
64229;PMS5003;50547;49.498;0.092;2023-06-22T00:20:21;6;6;
64229;PMS5003;50547;49.498;0.092;2023-06-22T00:22:50;6;6;
64229;PMS5003;50547;49.498;0.092;2023-06-22T00:25:19;6;6;
64229;PMS5003;50547;49.498;0.092;2023-06-22T00:27:49;7;7;
64229;PMS5003;50547;49.498;0.092;2023-06-22T00:30:18;7;7;
64229;PMS5003;50547;49.498;0.092;2023-06-22T00:32:47;7;7;
64229;PMS5003;50547;49.498;0.092;2023-06-22T00:35:16;7;7;
64229;PMS5003;50547;49.498;0.092;2023-06-22T00:37:45;7;7;
64229;PMS5003;50547;49.498;0.092;2023-06-22T00:40:16;7;7;
64229;PMS5003;50547;49.498;0.092;2023-06-22T00:42:45;7;7;
64229;PMS5003;50547;49.498;0.092;2023-06-22T00:45:14;7;7;
64229;PMS5003;50547;49.498;0.092;2023-06-22T00:47:43;7;7;
64229;PMS5003;50547;49.498;0.092;2023-06-22T00:50:14;7;7;
64229;PMS5003;50547;49.498;0.092;2023-06-22T00:52:49;7;7;
64229;PMS5003;50547;49.498;0.092;2023-06-22T00:55:20;7;7;
64229;PMS5003;50547;49.498;0.092;2023-06-22T00:57:50;7;7;
64229;PMS5003;50547;49.498;0.092;2023-06-22T01:00:20;7;7;
64229;PMS5003;50547;49.498;0.092;2023-06-22T01:02:51;8;8;
64229;PMS5003;50547;49.498;0.092;2023-06-22T01:05:21;8;8;
64229;PMS5003;50547;49.498;0.092;2023-06-22T01:07:55;8;8;
64229;PMS5003;50547;49.498;0.092;2023-06-22T01:10:35;7;7;
64229;PMS5003;50547;49.498;0.092;2023-06-22T01:13:11;8;8;
64229;PMS5003;50547;49.498;0.092;2023-06-22T01:15:53;8;8;
64229;PMS5003;50547;49.498;0.092;2023-06-22T01:18:29;8;8;
64229;PMS5003;50547;49.498;0.092;2023-06-22T01:21:00;8;8;
64229;PMS5003;50547;49.498;0.092;2023-06-22T01:23:33;7;7;
64229;PMS5003;50547;49.498;0.092;2023-06-22T01:26:20;7;7;
64229;PMS5003;50547;49.498;0.092;2023-06-22T01:28:57;7;7;
64229;PMS5003;50547;49.498;0.092;2023-06-22T01:31:28;7;7;
64229;PMS5003;50547;49.498;0.092;2023-06-22T01:34:01;7;7;
64229;PMS5003;50547;49.498;0.092;2023-06-22T01:36:33;7;7;
64229;PMS5003;50547;49.498;0.092;2023-06-22T01:39:03;8;8;
64229;PMS5003;50547;49.498;0.092;2023-06-22T01:41:34;7;7;
64229;PMS5003;50547;49.498;0.092;2023-06-22T01:44:05;7;7;
64229;PMS5003;50547;49.498;0.092;2023-06-22T01:46:36;7;7;
64229;PMS5003;50547;49.498;0.092;2023-06-22T01:49:06;8;8;
64229;PMS5003;50547;49.498;0.092;2023-06-22T01:51:36;7;7;
64229;PMS5003;50547;49.498;0.092;2023-06-22T01:54:06;7;7;
64229;PMS5003;50547;49.498;0.092;2023-06-22T01:56:35;8;8;
64229;PMS5003;50547;49.498;0.092;2023-06-22T01:59:06;8;8;
64229;PMS5003;50547;49.498;0.092;2023-06-22T02:01:42;7;7;
64229;PMS5003;50547;49.498;0.092;2023-06-22T02:04:13;7;7;
64229;PMS5003;50547;49.498;0.092;2023-06-22T02:06:47;7;7;
64229;PMS5003;50547;49.498;0.092;2023-06-22T02:09:23;7;7;
64229;PMS5003;50547;49.498;0.092;2023-06-22T02:11:57;7;7;
64229;PMS5003;50547;49.498;0.092;2023-06-22T02:14:28;7;7;
64229;PMS5003;50547;49.498;0.092;2023-06-22T02:16:58;7;7;
64229;PMS5003;50547;49.498;0.092;2023-06-22T02:19:27;7;7;
64229;PMS5003;50547;49.498;0.092;2023-06-22T02:21:56;7;7;
64229;PMS5003;50547;49.498;0.092;2023-06-22T02:24:25;7;7;
64229;PMS5003;50547;49.498;0.092;2023-06-22T02:26:54;7;7;
64229;PMS5003;50547;49.498;0.092;2023-06-22T02:29:23;7;7;
64229;PMS5003;50547;49.498;0.092;2023-06-22T02:31:52;7;7;
64229;PMS5003;50547;49.498;0.092;2023-06-22T02:34:22;6;6;
64229;PMS5003;50547;49.498;0.092;2023-06-22T02:36:51;7;7;
64229;PMS5003;50547;49.498;0.092;2023-06-22T02:39:20;7;7;
64229;PMS5003;50547;49.498;0.092;2023-06-22T02:41:50;7;7;
64229;PMS5003;50547;49.498;0.092;2023-06-22T02:44:22;7;7;
64229;PMS5003;50547;49.498;0.092;2023-06-22T02:46:52;7;7;
64229;PMS5003;50547;49.498;0.092;2023-06-22T02:49:21;7;7;
64229;PMS5003;50547;49.498;0.092;2023-06-22T02:51:50;7;7;
64229;PMS5003;50547;49.498;0.092;2023-06-22T02:54:19;7;7;
64229;PMS5003;50547;49.498;0.092;2023-06-22T02:56:48;6;6;
64229;PMS5003;50547;49.498;0.092;2023-06-22T02:59:17;7;7;
64229;PMS5003;50547;49.498;0.092;2023-06-22T03:01:46;7;7;
64229;PMS5003;50547;49.498;0.092;2023-06-22T03:04:15;6;6;
64229;PMS5003;50547;49.498;0.092;2023-06-22T03:06:44;7;7;
64229;PMS5003;50547;49.498;0.092;2023-06-22T03:09:13;7;7;
64229;PMS5003;50547;49.498;0.092;2023-06-22T03:11:42;7;7;
64229;PMS5003;50547;49.498;0.092;2023-06-22T03:14:11;7;7;
64229;PMS5003;50547;49.498;0.092;2023-06-22T03:16:40;7;7;
64229;PMS5003;50547;49.498;0.092;2023-06-22T03:19:10;7;7;
64229;PMS5003;50547;49.498;0.092;2023-06-22T03:21:39;7;7;
64229;PMS5003;50547;49.498;0.092;2023-06-22T03:24:09;7;7;
64229;PMS5003;50547;49.498;0.092;2023-06-22T03:26:38;7;7;
64229;PMS5003;50547;49.498;0.092;2023-06-22T03:29:07;7;7;
64229;PMS5003;50547;49.498;0.092;2023-06-22T03:31:36;7;7;
64229;PMS5003;50547;49.498;0.092;2023-06-22T03:34:05;7;7;
64229;PMS5003;50547;49.498;0.092;2023-06-22T03:36:34;7;7;
64229;PMS5003;50547;49.498;0.092;2023-06-22T03:39:03;7;7;
64229;PMS5003;50547;49.498;0.092;2023-06-22T03:41:32;7;7;
64229;PMS5003;50547;49.498;0.092;2023-06-22T03:44:01;7;7;
64229;PMS5003;50547;49.498;0.092;2023-06-22T03:46:30;7;7;
64229;PMS5003;50547;49.498;0.092;2023-06-22T03:48:59;7;7;
64229;PMS5003;50547;49.498;0.092;2023-06-22T03:51:28;7;7;
64229;PMS5003;50547;49.498;0.092;2023-06-22T03:53:57;7;7;
64229;PMS5003;50547;49.498;0.092;2023-06-22T03:56:26;7;7;
64229;PMS5003;50547;49.498;0.092;2023-06-22T03:58:55;7;7;
64229;PMS5003;50547;49.498;0.092;2023-06-22T04:01:24;7;7;
64229;PMS5003;50547;49.498;0.092;2023-06-22T04:03:53;7;7;
64229;PMS5003;50547;49.498;0.092;2023-06-22T04:06:22;7;7;
64229;PMS5003;50547;49.498;0.092;2023-06-22T04:08:51;7;7;
64229;PMS5003;50547;49.498;0.092;2023-06-22T04:11:20;7;7;
64229;PMS5003;50547;49.498;0.092;2023-06-22T04:13:50;8;8;
64229;PMS5003;50547;49.498;0.092;2023-06-22T04:16:19;7;7;
64229;PMS5003;50547;49.498;0.092;2023-06-22T04:18:48;7;7;
64229;PMS5003;50547;49.498;0.092;2023-06-22T04:21:17;7;7;
64229;PMS5003;50547;49.498;0.092;2023-06-22T04:23:46;7;7;
64229;PMS5003;50547;49.498;0.092;2023-06-22T04:26:15;7;7;
64229;PMS5003;50547;49.498;0.092;2023-06-22T04:28:44;7;7;
64229;PMS5003;50547;49.498;0.092;2023-06-22T04:31:13;7;7;
64229;PMS5003;50547;49.498;0.092;2023-06-22T04:33:42;7;7;
64229;PMS5003;50547;49.498;0.092;2023-06-22T04:36:11;7;7;
64229;PMS5003;50547;49.498;0.092;2023-06-22T04:38:40;7;7;
64229;PMS5003;50547;49.498;0.092;2023-06-22T04:41:09;7;7;
64229;PMS5003;50547;49.498;0.092;2023-06-22T04:43:38;7;7;
64229;PMS5003;50547;49.498;0.092;2023-06-22T04:46:07;7;7;
64229;PMS5003;50547;49.498;0.092;2023-06-22T04:48:36;7;7;
64229;PMS5003;50547;49.498;0.092;2023-06-22T04:51:05;7;7;
64229;PMS5003;50547;49.498;0.092;2023-06-22T04:53:34;7;7;
64229;PMS5003;50547;49.498;0.092;2023-06-22T04:56:03;7;7;
64229;PMS5003;50547;49.498;0.092;2023-06-22T04:58:32;7;7;
64229;PMS5003;50547;49.498;0.092;2023-06-22T05:01:01;7;7;
64229;PMS5003;50547;49.498;0.092;2023-06-22T05:03:30;8;8;
64229;PMS5003;50547;49.498;0.092;2023-06-22T05:06:00;7;7;
64229;PMS5003;50547;49.498;0.092;2023-06-22T05:08:29;7;7;
64229;PMS5003;50547;49.498;0.092;2023-06-22T05:10:58;8;8;
64229;PMS5003;50547;49.498;0.092;2023-06-22T05:13:27;7;7;
64229;PMS5003;50547;49.498;0.092;2023-06-22T05:15:56;7;7;
64229;PMS5003;50547;49.498;0.092;2023-06-22T05:18:25;8;8;
64229;PMS5003;50547;49.498;0.092;2023-06-22T05:20:54;8;8;
64229;PMS5003;50547;49.498;0.092;2023-06-22T05:23:23;7;7;
64229;PMS5003;50547;49.498;0.092;2023-06-22T05:25:52;8;8;
64229;PMS5003;50547;49.498;0.092;2023-06-22T05:28:21;7;7;
64229;PMS5003;50547;49.498;0.092;2023-06-22T05:30:50;8;8;
64229;PMS5003;50547;49.498;0.092;2023-06-22T05:33:19;8;8;
64229;PMS5003;50547;49.498;0.092;2023-06-22T05:35:48;8;8;
64229;PMS5003;50547;49.498;0.092;2023-06-22T05:38:17;8;8;
64229;PMS5003;50547;49.498;0.092;2023-06-22T05:40:43;8;8;
64229;PMS5003;50547;49.498;0.092;2023-06-22T05:43:12;8;8;
64229;PMS5003;50547;49.498;0.092;2023-06-22T05:45:41;8;8;
64229;PMS5003;50547;49.498;0.092;2023-06-22T05:48:10;8;8;
64229;PMS5003;50547;49.498;0.092;2023-06-22T05:50:39;9;9;
64229;PMS5003;50547;49.498;0.092;2023-06-22T05:53:08;10;10;
64229;PMS5003;50547;49.498;0.092;2023-06-22T05:55:38;9;9;
64229;PMS5003;50547;49.498;0.092;2023-06-22T05:58:07;9;9;
64229;PMS5003;50547;49.498;0.092;2023-06-22T06:00:36;10;10;
64229;PMS5003;50547;49.498;0.092;2023-06-22T06:03:05;10;10;
64229;PMS5003;50547;49.498;0.092;2023-06-22T06:05:34;10;10;
64229;PMS5003;50547;49.498;0.092;2023-06-22T06:08:05;10;10;
64229;PMS5003;50547;49.498;0.092;2023-06-22T06:10:35;10;10;
64229;PMS5003;50547;49.498;0.092;2023-06-22T06:13:04;10;10;
64229;PMS5003;50547;49.498;0.092;2023-06-22T06:15:34;10;10;
64229;PMS5003;50547;49.498;0.092;2023-06-22T06:18:03;10;10;
64229;PMS5003;50547;49.498;0.092;2023-06-22T06:20:32;10;10;
64229;PMS5003;50547;49.498;0.092;2023-06-22T06:23:01;10;10;
64229;PMS5003;50547;49.498;0.092;2023-06-22T06:25:30;10;10;
64229;PMS5003;50547;49.498;0.092;2023-06-22T06:27:59;10;10;
64229;PMS5003;50547;49.498;0.092;2023-06-22T06:30:28;10;10;
64229;PMS5003;50547;49.498;0.092;2023-06-22T06:32:57;11;11;
64229;PMS5003;50547;49.498;0.092;2023-06-22T06:35:26;10;10;
64229;PMS5003;50547;49.498;0.092;2023-06-22T06:37:55;10;10;
64229;PMS5003;50547;49.498;0.092;2023-06-22T06:40:24;11;11;
64229;PMS5003;50547;49.498;0.092;2023-06-22T06:42:53;11;11;
64229;PMS5003;50547;49.498;0.092;2023-06-22T06:45:23;11;11;
64229;PMS5003;50547;49.498;0.092;2023-06-22T06:47:52;10;10;
64229;PMS5003;50547;49.498;0.092;2023-06-22T06:50:21;11;11;
64229;PMS5003;50547;49.498;0.092;2023-06-22T06:52:50;10;10;
64229;PMS5003;50547;49.498;0.092;2023-06-22T06:55:19;10;10;
64229;PMS5003;50547;49.498;0.092;2023-06-22T06:57:48;10;10;
64229;PMS5003;50547;49.498;0.092;2023-06-22T07:00:17;10;10;
64229;PMS5003;50547;49.498;0.092;2023-06-22T07:02:47;10;10;
64229;PMS5003;50547;49.498;0.092;2023-06-22T07:05:16;10;10;
64229;PMS5003;50547;49.498;0.092;2023-06-22T07:07:45;10;10;
64229;PMS5003;50547;49.498;0.092;2023-06-22T07:10:14;10;10;
64229;PMS5003;50547;49.498;0.092;2023-06-22T07:12:43;10;10;
64229;PMS5003;50547;49.498;0.092;2023-06-22T07:15:13;10;10;
64229;PMS5003;50547;49.498;0.092;2023-06-22T07:17:42;10;10;
64229;PMS5003;50547;49.498;0.092;2023-06-22T07:20:11;10;10;
64229;PMS5003;50547;49.498;0.092;2023-06-22T07:22:41;10;10;
64229;PMS5003;50547;49.498;0.092;2023-06-22T07:25:11;10;10;
64229;PMS5003;50547;49.498;0.092;2023-06-22T07:27:43;10;10;
64229;PMS5003;50547;49.498;0.092;2023-06-22T07:30:13;10;10;
64229;PMS5003;50547;49.498;0.092;2023-06-22T07:32:42;10;10;
64229;PMS5003;50547;49.498;0.092;2023-06-22T07:35:11;10;10;
64229;PMS5003;50547;49.498;0.092;2023-06-22T07:37:40;10;10;
64229;PMS5003;50547;49.498;0.092;2023-06-22T07:40:09;9;9;
64229;PMS5003;50547;49.498;0.092;2023-06-22T07:42:39;10;10;
64229;PMS5003;50547;49.498;0.092;2023-06-22T07:45:08;10;10;
64229;PMS5003;50547;49.498;0.092;2023-06-22T07:47:37;10;10;
64229;PMS5003;50547;49.498;0.092;2023-06-22T07:50:06;10;10;
64229;PMS5003;50547;49.498;0.092;2023-06-22T07:52:35;10;10;
64229;PMS5003;50547;49.498;0.092;2023-06-22T07:55:05;10;10;
64229;PMS5003;50547;49.498;0.092;2023-06-22T07:57:34;10;10;
64229;PMS5003;50547;49.498;0.092;2023-06-22T08:00:04;10;10;
64229;PMS5003;50547;49.498;0.092;2023-06-22T08:02:34;10;10;
64229;PMS5003;50547;49.498;0.092;2023-06-22T08:05:03;10;10;
64229;PMS5003;50547;49.498;0.092;2023-06-22T08:07:32;10;10;
64229;PMS5003;50547;49.498;0.092;2023-06-22T08:10:02;11;11;
64229;PMS5003;50547;49.498;0.092;2023-06-22T08:12:31;10;10;
64229;PMS5003;50547;49.498;0.092;2023-06-22T08:15:00;10;10;
64229;PMS5003;50547;49.498;0.092;2023-06-22T08:17:29;11;11;
64229;PMS5003;50547;49.498;0.092;2023-06-22T08:19:58;11;11;
64229;PMS5003;50547;49.498;0.092;2023-06-22T08:22:27;11;11;
64229;PMS5003;50547;49.498;0.092;2023-06-22T08:24:55;11;11;
64229;PMS5003;50547;49.498;0.092;2023-06-22T08:27:24;10;10;
64229;PMS5003;50547;49.498;0.092;2023-06-22T08:29:53;10;10;
64229;PMS5003;50547;49.498;0.092;2023-06-22T08:32:22;11;11;
64229;PMS5003;50547;49.498;0.092;2023-06-22T08:34:52;11;11;
64229;PMS5003;50547;49.498;0.092;2023-06-22T08:37:21;11;11;
64229;PMS5003;50547;49.498;0.092;2023-06-22T08:39:51;11;11;
64229;PMS5003;50547;49.498;0.092;2023-06-22T08:42:20;10;10;
64229;PMS5003;50547;49.498;0.092;2023-06-22T08:44:49;11;11;
64229;PMS5003;50547;49.498;0.092;2023-06-22T08:47:18;11;11;
64229;PMS5003;50547;49.498;0.092;2023-06-22T08:49:47;11;11;
64229;PMS5003;50547;49.498;0.092;2023-06-22T08:52:17;11;11;
64229;PMS5003;50547;49.498;0.092;2023-06-22T08:54:46;11;11;
64229;PMS5003;50547;49.498;0.092;2023-06-22T08:57:15;10;10;
64229;PMS5003;50547;49.498;0.092;2023-06-22T08:59:44;11;11;
64229;PMS5003;50547;49.498;0.092;2023-06-22T09:02:13;10;10;
64229;PMS5003;50547;49.498;0.092;2023-06-22T09:04:42;10;10;
64229;PMS5003;50547;49.498;0.092;2023-06-22T09:07:11;10;10;
64229;PMS5003;50547;49.498;0.092;2023-06-22T09:09:39;10;10;
64229;PMS5003;50547;49.498;0.092;2023-06-22T09:12:09;10;10;
64229;PMS5003;50547;49.498;0.092;2023-06-22T09:14:38;10;10;
64229;PMS5003;50547;49.498;0.092;2023-06-22T09:17:07;8;8;
64229;PMS5003;50547;49.498;0.092;2023-06-22T09:19:36;10;10;
64229;PMS5003;50547;49.498;0.092;2023-06-22T09:22:05;9;9;
64229;PMS5003;50547;49.498;0.092;2023-06-22T09:24:34;10;10;
64229;PMS5003;50547;49.498;0.092;2023-06-22T09:27:04;10;10;
64229;PMS5003;50547;49.498;0.092;2023-06-22T09:29:33;10;10;
64229;PMS5003;50547;49.498;0.092;2023-06-22T09:32:02;10;10;
64229;PMS5003;50547;49.498;0.092;2023-06-22T09:34:31;11;11;
64229;PMS5003;50547;49.498;0.092;2023-06-22T09:37:00;11;11;
64229;PMS5003;50547;49.498;0.092;2023-06-22T09:39:29;11;11;
64229;PMS5003;50547;49.498;0.092;2023-06-22T09:41:59;10;10;
64229;PMS5003;50547;49.498;0.092;2023-06-22T09:44:28;11;11;
64229;PMS5003;50547;49.498;0.092;2023-06-22T09:46:57;11;11;
64229;PMS5003;50547;49.498;0.092;2023-06-22T09:49:26;11;11;
64229;PMS5003;50547;49.498;0.092;2023-06-22T09:51:55;11;11;
64229;PMS5003;50547;49.498;0.092;2023-06-22T09:54:24;11;11;
64229;PMS5003;50547;49.498;0.092;2023-06-22T09:56:53;11;11;
64229;PMS5003;50547;49.498;0.092;2023-06-22T09:59:22;11;11;
64229;PMS5003;50547;49.498;0.092;2023-06-22T10:01:51;10;10;
64229;PMS5003;50547;49.498;0.092;2023-06-22T10:04:20;10;10;
64229;PMS5003;50547;49.498;0.092;2023-06-22T10:06:49;10;10;
64229;PMS5003;50547;49.498;0.092;2023-06-22T10:09:15;11;11;
64229;PMS5003;50547;49.498;0.092;2023-06-22T10:11:44;11;11;
64229;PMS5003;50547;49.498;0.092;2023-06-22T10:14:13;11;11;
64229;PMS5003;50547;49.498;0.092;2023-06-22T10:16:42;11;11;
64229;PMS5003;50547;49.498;0.092;2023-06-22T10:19:11;11;11;
64229;PMS5003;50547;49.498;0.092;2023-06-22T10:21:40;13;13;
64229;PMS5003;50547;49.498;0.092;2023-06-22T10:24:09;13;13;
64229;PMS5003;50547;49.498;0.092;2023-06-22T10:26:38;11;11;
64229;PMS5003;50547;49.498;0.092;2023-06-22T10:29:07;11;11;
64229;PMS5003;50547;49.498;0.092;2023-06-22T10:31:36;11;11;
64229;PMS5003;50547;49.498;0.092;2023-06-22T10:34:05;11;11;
64229;PMS5003;50547;49.498;0.092;2023-06-22T10:36:34;13;13;
64229;PMS5003;50547;49.498;0.092;2023-06-22T10:39:04;10;10;
64229;PMS5003;50547;49.498;0.092;2023-06-22T10:41:34;11;11;
64229;PMS5003;50547;49.498;0.092;2023-06-22T10:44:03;11;11;
64229;PMS5003;50547;49.498;0.092;2023-06-22T10:46:32;13;13;
64229;PMS5003;50547;49.498;0.092;2023-06-22T10:49:01;11;11;
64229;PMS5003;50547;49.498;0.092;2023-06-22T10:51:30;13;13;
64229;PMS5003;50547;49.498;0.092;2023-06-22T10:54:23;13;13;
64229;PMS5003;50547;49.498;0.092;2023-06-22T10:56:52;13;13;
64229;PMS5003;50547;49.498;0.092;2023-06-22T10:59:21;13;13;
64229;PMS5003;50547;49.498;0.092;2023-06-22T11:01:50;13;13;
64229;PMS5003;50547;49.498;0.092;2023-06-22T11:04:19;13;13;
64229;PMS5003;50547;49.498;0.092;2023-06-22T11:06:48;13;13;
64229;PMS5003;50547;49.498;0.092;2023-06-22T11:09:18;13;13;
64229;PMS5003;50547;49.498;0.092;2023-06-22T11:11:47;11;11;
64229;PMS5003;50547;49.498;0.092;2023-06-22T11:31:54;17;15;
64229;PMS5003;50547;49.498;0.092;2023-06-22T11:34:23;11;11;
64229;PMS5003;50547;49.498;0.092;2023-06-22T11:36:52;12;12;
64229;PMS5003;50547;49.498;0.092;2023-06-22T11:39:21;11;11;
64229;PMS5003;50547;49.498;0.092;2023-06-22T11:41:50;11;11;
64229;PMS5003;50547;49.498;0.092;2023-06-22T11:44:19;11;11;
64229;PMS5003;50547;49.498;0.092;2023-06-22T11:46:48;13;13;
64229;PMS5003;50547;49.498;0.092;2023-06-22T11:55:49;11;11;
64229;PMS5003;50547;49.498;0.092;2023-06-22T11:58:18;13;13;
64229;PMS5003;50547;49.498;0.092;2023-06-22T12:00:47;15;14;
64229;PMS5003;50547;49.498;0.092;2023-06-22T12:27:51;11;11;
64229;PMS5003;50547;49.498;0.092;2023-06-22T12:47:08;10;10;
64229;PMS5003;50547;49.498;0.092;2023-06-22T12:49:37;11;11;
64229;PMS5003;50547;49.498;0.092;2023-06-22T12:52:08;11;11;
64229;PMS5003;50547;49.498;0.092;2023-06-22T12:54:38;11;11;
64229;PMS5003;50547;49.498;0.092;2023-06-22T12:57:07;11;11;
64229;PMS5003;50547;49.498;0.092;2023-06-22T12:59:37;11;11;
64229;PMS5003;50547;49.498;0.092;2023-06-22T13:02:06;11;11;
64229;PMS5003;50547;49.498;0.092;2023-06-22T13:04:35;11;11;
64229;PMS5003;50547;49.498;0.092;2023-06-22T13:07:04;11;11;
64229;PMS5003;50547;49.498;0.092;2023-06-22T13:09:33;11;11;
64229;PMS5003;50547;49.498;0.092;2023-06-22T13:12:02;10;10;
64229;PMS5003;50547;49.498;0.092;2023-06-22T13:14:31;10;10;
64229;PMS5003;50547;49.498;0.092;2023-06-22T13:23:23;11;11;
64229;PMS5003;50547;49.498;0.092;2023-06-22T13:25:52;10;10;
64229;PMS5003;50547;49.498;0.092;2023-06-22T13:36:25;10;10;
64229;PMS5003;50547;49.498;0.092;2023-06-22T13:38:54;11;11;
64229;PMS5003;50547;49.498;0.092;2023-06-22T13:41:23;10;10;
64229;PMS5003;50547;49.498;0.092;2023-06-22T13:44:21;10;10;
64229;PMS5003;50547;49.498;0.092;2023-06-22T13:46:48;10;10;
64229;PMS5003;50547;49.498;0.092;2023-06-22T13:49:17;11;11;
64229;PMS5003;50547;49.498;0.092;2023-06-22T13:51:43;10;10;
64229;PMS5003;50547;49.498;0.092;2023-06-22T13:54:12;10;10;
64229;PMS5003;50547;49.498;0.092;2023-06-22T13:56:41;10;10;
64229;PMS5003;50547;49.498;0.092;2023-06-22T13:59:08;10;10;
64229;PMS5003;50547;49.498;0.092;2023-06-22T14:01:37;10;10;
64229;PMS5003;50547;49.498;0.092;2023-06-22T14:04:06;10;10;
64229;PMS5003;50547;49.498;0.092;2023-06-22T14:06:35;10;10;
64229;PMS5003;50547;49.498;0.092;2023-06-22T14:09:04;10;10;
64229;PMS5003;50547;49.498;0.092;2023-06-22T14:11:34;10;10;
64229;PMS5003;50547;49.498;0.092;2023-06-22T14:14:02;10;10;
64229;PMS5003;50547;49.498;0.092;2023-06-22T14:16:37;10;10;
64229;PMS5003;50547;49.498;0.092;2023-06-22T14:19:06;10;10;
64229;PMS5003;50547;49.498;0.092;2023-06-22T14:21:35;11;11;
64229;PMS5003;50547;49.498;0.092;2023-06-22T14:24:05;10;10;
64229;PMS5003;50547;49.498;0.092;2023-06-22T14:26:34;11;11;
64229;PMS5003;50547;49.498;0.092;2023-06-22T14:29:03;11;11;
64229;PMS5003;50547;49.498;0.092;2023-06-22T14:31:32;11;11;
64229;PMS5003;50547;49.498;0.092;2023-06-22T14:34:01;11;11;
64229;PMS5003;50547;49.498;0.092;2023-06-22T14:36:30;11;11;
64229;PMS5003;50547;49.498;0.092;2023-06-22T14:38:59;11;11;
64229;PMS5003;50547;49.498;0.092;2023-06-22T14:41:29;11;11;
64229;PMS5003;50547;49.498;0.092;2023-06-22T14:43:58;11;11;
64229;PMS5003;50547;49.498;0.092;2023-06-22T14:46:27;11;11;
64229;PMS5003;50547;49.498;0.092;2023-06-22T14:48:56;13;13;
64229;PMS5003;50547;49.498;0.092;2023-06-22T14:51:25;11;11;
64229;PMS5003;50547;49.498;0.092;2023-06-22T14:53:55;11;11;
64229;PMS5003;50547;49.498;0.092;2023-06-22T14:56:24;11;11;
64229;PMS5003;50547;49.498;0.092;2023-06-22T14:58:50;11;11;
64229;PMS5003;50547;49.498;0.092;2023-06-22T15:01:20;11;11;
64229;PMS5003;50547;49.498;0.092;2023-06-22T15:03:49;11;11;
64229;PMS5003;50547;49.498;0.092;2023-06-22T15:06:18;11;11;
64229;PMS5003;50547;49.498;0.092;2023-06-22T15:08:47;11;11;
64229;PMS5003;50547;49.498;0.092;2023-06-22T15:11:16;11;11;
64229;PMS5003;50547;49.498;0.092;2023-06-22T15:13:45;11;11;
64229;PMS5003;50547;49.498;0.092;2023-06-22T15:16:14;11;11;
64229;PMS5003;50547;49.498;0.092;2023-06-22T15:18:43;11;11;
64229;PMS5003;50547;49.498;0.092;2023-06-22T15:21:12;11;11;
64229;PMS5003;50547;49.498;0.092;2023-06-22T15:23:45;11;11;
64229;PMS5003;50547;49.498;0.092;2023-06-22T15:26:14;11;11;
64229;PMS5003;50547;49.498;0.092;2023-06-22T15:28:43;11;11;
64229;PMS5003;50547;49.498;0.092;2023-06-22T15:31:12;11;11;
64229;PMS5003;50547;49.498;0.092;2023-06-22T15:33:41;11;11;
64229;PMS5003;50547;49.498;0.092;2023-06-22T15:36:10;11;11;
64229;PMS5003;50547;49.498;0.092;2023-06-22T15:38:39;11;11;
64229;PMS5003;50547;49.498;0.092;2023-06-22T15:41:08;11;11;
64229;PMS5003;50547;49.498;0.092;2023-06-22T15:43:37;11;11;
64229;PMS5003;50547;49.498;0.092;2023-06-22T15:46:06;11;11;
64229;PMS5003;50547;49.498;0.092;2023-06-22T15:48:36;11;11;
64229;PMS5003;50547;49.498;0.092;2023-06-22T15:51:04;11;11;
64229;PMS5003;50547;49.498;0.092;2023-06-22T15:53:33;13;13;
64229;PMS5003;50547;49.498;0.092;2023-06-22T15:56:03;11;11;
64229;PMS5003;50547;49.498;0.092;2023-06-22T15:58:31;11;11;
64229;PMS5003;50547;49.498;0.092;2023-06-22T16:01:01;13;13;
64229;PMS5003;50547;49.498;0.092;2023-06-22T16:03:30;13;13;
64229;PMS5003;50547;49.498;0.092;2023-06-22T16:06:23;13;13;
64229;PMS5003;50547;49.498;0.092;2023-06-22T16:08:52;13;13;
64229;PMS5003;50547;49.498;0.092;2023-06-22T16:11:21;13;13;
64229;PMS5003;50547;49.498;0.092;2023-06-22T16:13:50;11;11;
64229;PMS5003;50547;49.498;0.092;2023-06-22T16:16:20;13;13;
64229;PMS5003;50547;49.498;0.092;2023-06-22T16:18:49;11;11;
64229;PMS5003;50547;49.498;0.092;2023-06-22T16:21:18;11;11;
64229;PMS5003;50547;49.498;0.092;2023-06-22T16:23:47;11;11;
64229;PMS5003;50547;49.498;0.092;2023-06-22T16:26:17;11;11;
64229;PMS5003;50547;49.498;0.092;2023-06-22T16:28:46;11;11;
64229;PMS5003;50547;49.498;0.092;2023-06-22T16:31:15;11;11;
64229;PMS5003;50547;49.498;0.092;2023-06-22T16:33:44;11;11;
64229;PMS5003;50547;49.498;0.092;2023-06-22T16:36:13;10;10;
64229;PMS5003;50547;49.498;0.092;2023-06-22T16:38:42;10;10;
64229;PMS5003;50547;49.498;0.092;2023-06-22T16:41:11;11;11;
64229;PMS5003;50547;49.498;0.092;2023-06-22T16:43:40;11;11;
64229;PMS5003;50547;49.498;0.092;2023-06-22T16:46:09;11;11;
64229;PMS5003;50547;49.498;0.092;2023-06-22T16:48:38;10;10;
64229;PMS5003;50547;49.498;0.092;2023-06-22T16:51:07;10;10;
64229;PMS5003;50547;49.498;0.092;2023-06-22T16:53:36;10;10;
64229;PMS5003;50547;49.498;0.092;2023-06-22T16:56:06;10;10;
64229;PMS5003;50547;49.498;0.092;2023-06-22T16:58:35;10;10;
64229;PMS5003;50547;49.498;0.092;2023-06-22T17:01:06;10;10;
64229;PMS5003;50547;49.498;0.092;2023-06-22T17:03:37;10;10;
64229;PMS5003;50547;49.498;0.092;2023-06-22T17:06:11;10;10;
64229;PMS5003;50547;49.498;0.092;2023-06-22T17:08:42;10;10;
64229;PMS5003;50547;49.498;0.092;2023-06-22T17:11:13;10;10;
64229;PMS5003;50547;49.498;0.092;2023-06-22T17:13:42;10;10;
64229;PMS5003;50547;49.498;0.092;2023-06-22T17:16:12;10;10;
64229;PMS5003;50547;49.498;0.092;2023-06-22T17:18:41;10;10;
64229;PMS5003;50547;49.498;0.092;2023-06-22T17:21:10;10;10;
64229;PMS5003;50547;49.498;0.092;2023-06-22T17:23:39;10;10;
64229;PMS5003;50547;49.498;0.092;2023-06-22T17:26:09;10;10;
64229;PMS5003;50547;49.498;0.092;2023-06-22T17:28:47;10;10;
64229;PMS5003;50547;49.498;0.092;2023-06-22T17:31:17;10;10;
64229;PMS5003;50547;49.498;0.092;2023-06-22T17:33:48;10;10;
64229;PMS5003;50547;49.498;0.092;2023-06-22T17:36:17;10;10;
64229;PMS5003;50547;49.498;0.092;2023-06-22T17:38:46;10;10;
64229;PMS5003;50547;49.498;0.092;2023-06-22T17:41:20;10;10;
64229;PMS5003;50547;49.498;0.092;2023-06-22T17:44:06;10;10;
64229;PMS5003;50547;49.498;0.092;2023-06-22T17:46:36;8;8;
64229;PMS5003;50547;49.498;0.092;2023-06-22T17:49:07;8;8;
64229;PMS5003;50547;49.498;0.092;2023-06-22T17:51:38;9;9;
64229;PMS5003;50547;49.498;0.092;2023-06-22T17:54:05;9;9;
64229;PMS5003;50547;49.498;0.092;2023-06-22T17:56:34;8;8;
64229;PMS5003;50547;49.498;0.092;2023-06-22T17:59:03;8;8;
64229;PMS5003;50547;49.498;0.092;2023-06-22T18:01:33;8;8;
64229;PMS5003;50547;49.498;0.092;2023-06-22T18:04:05;8;8;
64229;PMS5003;50547;49.498;0.092;2023-06-22T18:06:35;8;8;